Time;durP1;ratioP1;P1;durP2;ratioP2;P2;SDS_P1;SDS_P2;PMS_P1;PMS_P2;Temp;Humidity;BMP_temperature;BMP_pressure;BME280_temperature;BME280_humidity;BME280_pressure;Samples;Min_cycle;Max_cycle;Signal;HPM_P1;HPM_P2
2022/08/18 00:00:32;;;;;;;21.48;11.40;;;;;;;18.70;100.00;101332.41;5047124;28;20037;-76
2022/08/18 00:03:06;;;;;;;21.80;12.00;;;;;;;18.70;100.00;101332.41;5054056;28;20029;-75
2022/08/18 00:05:33;;;;;;;17.88;11.48;;;;;;;18.69;100.00;101330.66;5045337;28;20021;-75
2022/08/18 00:07:59;;;;;;;18.58;11.93;;;;;;;18.68;100.00;101323.56;5034547;28;20460;-75
2022/08/18 00:10:25;;;;;;;20.17;11.43;;;;;;;18.67;100.00;101327.13;5034902;28;20029;-75
2022/08/18 00:12:50;;;;;;;21.73;11.02;;;;;;;18.66;100.00;101328.88;5037316;28;20029;-75
2022/08/18 00:15:17;;;;;;;25.55;12.82;;;;;;;18.65;100.00;101337.81;5050522;28;20029;-76
2022/08/18 00:17:43;;;;;;;24.08;12.00;;;;;;;18.64;100.00;101335.16;5055003;28;20048;-76
2022/08/18 00:20:15;;;;;;;23.13;12.88;;;;;;;18.64;100.00;101332.50;5052007;28;20052;-76
2022/08/18 00:22:41;;;;;;;15.55;11.70;;;;;;;18.64;100.00;101332.50;5039321;28;20457;-76
2022/08/18 00:25:08;;;;;;;16.75;12.07;;;;;;;18.63;100.00;101322.72;5046570;28;20059;-76
2022/08/18 00:27:36;;;;;;;25.58;12.80;;;;;;;18.63;100.00;101314.72;5074582;28;20087;-76
2022/08/18 00:30:04;;;;;;;19.13;12.18;;;;;;;18.64;100.00;101305.84;5070383;28;20031;-76
2022/08/18 00:32:36;;;;;;;18.55;12.90;;;;;;;18.63;100.00;101293.41;5041436;28;20034;-76
2022/08/18 00:35:13;;;;;;;23.35;13.38;;;;;;;18.62;100.00;101291.63;5049104;28;20033;-75
2022/08/18 00:37:39;;;;;;;22.63;13.18;;;;;;;18.60;100.00;101288.06;5054238;28;20028;-75
2022/08/18 00:40:05;;;;;;;22.80;12.73;;;;;;;18.58;100.00;101296.09;5036386;28;20022;-76
2022/08/18 00:42:32;;;;;;;20.02;12.32;;;;;;;18.56;100.00;101305.00;5034623;28;20043;-75
2022/08/18 00:45:02;;;;;;;18.73;13.68;;;;;;;18.52;100.00;101312.16;5035274;28;20058;-75
2022/08/18 00:47:29;;;;;;;27.00;12.75;;;;;;;18.49;100.00;101312.19;5045047;28;20083;-75
2022/08/18 00:49:54;;;;;;;23.63;12.73;;;;;;;18.46;100.00;101314.84;5042990;28;20074;-76
2022/08/18 00:52:21;;;;;;;21.25;13.02;;;;;;;18.46;100.00;101318.44;5046429;28;20432;-76
2022/08/18 00:54:47;;;;;;;20.02;12.80;;;;;;;18.42;100.00;101322.03;5040611;28;20025;-76
2022/08/18 00:57:15;;;;;;;20.33;12.52;;;;;;;18.39;100.00;101314.03;5035913;28;20390;-75
2022/08/18 00:59:54;;;;;;;18.75;11.93;;;;;;;18.36;100.00;101314.06;5041851;28;20028;-76
2022/08/18 01:02:34;;;;;;;16.00;11.48;;;;;;;18.34;100.00;101329.19;5042750;28;20083;-75
2022/08/18 01:05:24;;;;;;;20.42;12.02;;;;;;;18.31;100.00;101322.09;5042908;28;20032;-75
2022/08/18 01:07:50;;;;;;;15.07;10.95;;;;;;;18.29;100.00;101321.22;5034222;28;20524;-76
2022/08/18 01:10:19;;;;;;;16.88;10.27;;;;;;;18.27;100.00;101322.13;5037056;28;20025;-76
2022/08/18 01:12:55;;;;;;;13.55;10.30;;;;;;;18.23;100.00;101320.38;5042206;28;20033;-77
2022/08/18 01:15:23;;;;;;;21.77;10.90;;;;;;;18.18;100.00;101313.31;5052141;28;20054;-75
2022/08/18 01:23:28;;;;;;;18.38;9.95;;;;;;;18.02;100.00;101319.66;5043089;28;19919;-74
2022/08/18 01:25:59;;;;;;;16.65;10.40;;;;;;;17.97;100.00;101316.13;5044850;28;20431;-76
2022/08/18 01:28:26;;;;;;;13.18;9.75;;;;;;;17.96;100.00;101314.34;5040105;28;20085;-76
2022/08/18 01:30:56;;;;;;;15.38;8.25;;;;;;;17.90;100.00;101307.25;5042216;28;20029;-76
2022/08/18 01:33:35;;;;;;;14.10;9.32;;;;;;;17.93;100.00;101312.59;5044974;28;20024;-76
2022/08/18 01:36:15;;;;;;;16.65;8.65;;;;;;;17.91;100.00;101311.69;5040764;28;20022;-76
2022/08/18 01:38:42;;;;;;;21.15;9.70;;;;;;;17.89;100.00;101305.47;5040524;28;20028;-76
2022/08/18 01:41:08;;;;;;;18.88;7.72;;;;;;;17.85;100.00;101315.28;5040539;28;20448;-76
2022/08/18 01:43:35;;;;;;;12.52;8.48;;;;;;;17.80;100.00;101316.22;5039411;28;20062;-76
2022/08/18 01:46:03;;;;;;;13.85;8.18;;;;;;;17.79;100.00;101317.97;5039873;28;20041;-76
2022/08/18 01:48:32;;;;;;;17.48;8.60;;;;;;;17.79;100.00;101315.31;5043794;28;20120;-76
2022/08/18 01:50:59;;;;;;;12.23;8.85;;;;;;;17.80;100.00;101327.72;5046977;28;20480;-75
2022/08/18 01:53:26;;;;;;;14.65;8.73;;;;;;;17.74;100.00;101327.75;5046377;28;20358;-76
2022/08/18 01:55:51;;;;;;;12.18;8.30;;;;;;;17.72;100.00;101340.19;5052411;28;20389;-75
2022/08/18 01:58:17;;;;;;;12.73;8.82;;;;;;;17.73;100.00;101341.97;5048980;28;20032;-77
2022/08/18 02:00:42;;;;;;;13.70;8.80;;;;;;;17.72;100.00;101340.19;5046718;28;20163;-75
2022/08/18 02:03:11;;;;;;;19.25;9.63;;;;;;;17.70;100.00;101342.88;5047055;28;20051;-75
2022/08/18 02:05:46;;;;;;;12.57;8.55;;;;;;;17.65;100.00;101339.34;5044238;28;20408;-75
2022/08/18 02:08:12;;;;;;;10.20;8.40;;;;;;;17.63;100.00;101342.91;5040286;28;20548;-74
2022/08/18 02:10:38;;;;;;;13.88;7.95;;;;;;;17.59;100.00;101336.69;5050309;28;20119;-76
2022/08/18 02:13:04;;;;;;;10.95;8.65;;;;;;;17.55;100.00;101337.59;5043318;28;20072;-76
2022/08/18 02:15:30;;;;;;;18.08;8.45;;;;;;;17.62;100.00;101339.38;5044380;28;20060;-74
2022/08/18 02:17:56;;;;;;;14.30;8.85;;;;;;;17.58;100.00;101326.06;5043142;28;20091;-76
2022/08/18 02:20:21;;;;;;;13.38;8.63;;;;;;;17.51;100.00;101330.53;5040652;28;20021;-75
2022/08/18 02:22:47;;;;;;;12.02;8.52;;;;;;;17.48;100.00;101341.19;5045564;28;20033;-75
2022/08/18 02:25:14;;;;;;;14.80;8.73;;;;;;;17.43;100.00;101338.56;5042867;28;20146;-76
2022/08/18 02:27:39;;;;;;;14.55;8.45;;;;;;;17.41;100.00;101336.78;5051718;28;20492;-75
2022/08/18 02:30:09;;;;;;;14.20;8.57;;;;;;;17.40;100.00;101332.34;5040991;28;20025;-76
2022/08/18 02:32:34;;;;;;;17.13;8.23;;;;;;;17.36;100.00;101337.69;5043125;28;20186;-75
2022/08/18 02:34:59;;;;;;;11.35;7.97;;;;;;;17.34;100.00;101335.94;5040148;28;20481;-77
2022/08/18 02:37:25;;;;;;;15.95;8.30;;;;;;;17.31;100.00;101336.81;5048620;28;20112;-76
2022/08/18 02:39:50;;;;;;;14.43;8.43;;;;;;;17.31;100.00;101338.59;5036321;28;20122;-76
2022/08/18 02:42:16;;;;;;;18.55;8.32;;;;;;;17.29;100.00;101337.72;5037719;28;20021;-76
2022/08/18 02:44:41;;;;;;;13.50;8.15;;;;;;;17.28;100.00;101335.94;5041527;28;20039;-76
2022/08/18 02:47:07;;;;;;;17.02;8.70;;;;;;;17.25;100.00;101343.94;5036885;28;20029;-75
2022/08/18 02:49:35;;;;;;;13.32;9.43;;;;;;;17.23;100.00;101345.69;5037922;28;20025;-76
2022/08/18 02:52:01;;;;;;;9.93;7.53;;;;;;;17.19;100.00;101340.41;5040100;28;20021;-76
2022/08/18 02:54:27;;;;;;;10.93;8.23;;;;;;;17.15;100.00;101341.28;5042816;28;20480;-76
2022/08/18 02:56:52;;;;;;;16.35;8.32;;;;;;;17.13;100.00;101347.50;5038302;28;20034;-76
2022/08/18 02:59:23;;;;;;;10.93;8.63;;;;;;;17.13;100.00;101345.75;5043535;28;20021;-75
2022/08/18 03:01:50;;;;;;;11.95;8.98;;;;;;;17.09;100.00;101344.00;5047581;28;20032;-75
2022/08/18 03:04:18;;;;;;;13.30;9.00;;;;;;;17.13;100.00;101356.38;5041474;28;20029;-76
2022/08/18 03:06:45;;;;;;;13.32;9.48;;;;;;;17.13;100.00;101355.47;5051150;28;20131;-75
2022/08/18 03:09:11;;;;;;;18.70;9.80;;;;;;;17.15;100.00;101361.69;5045579;28;20039;-74
2022/08/18 03:11:37;;;;;;;17.13;9.65;;;;;;;17.15;100.00;101359.91;5048946;28;20361;-76
2022/08/18 03:14:04;;;;;;;12.45;9.23;;;;;;;17.18;100.00;101359.91;5045819;28;20030;-76
2022/08/18 03:16:31;;;;;;;15.15;10.05;;;;;;;17.23;100.00;101366.97;5050810;28;20024;-75
2022/08/18 03:18:57;;;;;;;13.32;9.27;;;;;;;17.24;100.00;101363.44;5045478;28;20467;-75
2022/08/18 03:21:25;;;;;;;15.60;9.48;;;;;;;17.25;100.00;101366.09;5035954;28;20080;-75
2022/08/18 03:23:52;;;;;;;14.10;9.05;;;;;;;17.27;100.00;101364.31;5044467;28;20029;-75
2022/08/18 03:26:20;;;;;;;14.40;10.43;;;;;;;17.30;100.00;101363.44;5043106;28;20063;-75
2022/08/18 03:28:48;;;;;;;11.35;8.55;;;;;;;17.30;100.00;101361.66;5034666;28;20025;-75
2022/08/18 03:31:15;;;;;;;17.50;9.93;;;;;;;17.33;100.00;101363.41;5039679;28;20127;-75
2022/08/18 03:33:42;;;;;;;15.15;9.73;;;;;;;17.31;100.00;101365.22;5035787;28;20037;-76
2022/08/18 03:36:12;;;;;;;22.73;10.68;;;;;;;17.34;100.00;101359.88;5034055;28;20044;-76
2022/08/18 03:38:39;;;;;;;12.77;9.88;;;;;;;17.38;100.00;101356.31;5048884;28;20082;-76
2022/08/18 03:41:09;;;;;;;13.02;10.50;;;;;;;17.39;100.00;101350.09;5037135;28;20612;-74
2022/08/18 03:43:35;;;;;;;20.60;10.95;;;;;;;17.37;100.00;101359.84;5034769;28;20381;-76
2022/08/18 03:46:01;;;;;;;15.45;9.77;;;;;;;17.36;100.00;101358.06;5037790;28;20029;-76
2022/08/18 03:48:27;;;;;;;17.10;9.30;;;;;;;17.35;100.00;101361.66;5038872;28;20021;-75
2022/08/18 03:50:53;;;;;;;12.25;10.05;;;;;;;17.37;100.00;101362.50;5042946;28;20606;-75
2022/08/18 03:53:18;;;;;;;14.45;10.50;;;;;;;17.37;100.00;101365.16;5039032;28;20056;-75
2022/08/18 03:55:44;;;;;;;13.77;10.13;;;;;;;17.36;100.00;101361.63;5041560;28;20035;-76
2022/08/18 03:58:13;;;;;;;16.77;9.55;;;;;;;17.38;100.00;101363.38;5048069;28;20033;-76
2022/08/18 04:00:40;;;;;;;16.63;10.15;;;;;;;17.36;100.00;101363.41;5046156;28;20021;-75
2022/08/18 04:03:05;;;;;;;14.65;9.90;;;;;;;17.38;100.00;101366.03;5037735;28;20108;-77
2022/08/18 04:05:34;;;;;;;15.10;10.52;;;;;;;17.36;100.00;101356.31;5035442;28;20528;-75
2022/08/18 04:08:01;;;;;;;16.38;10.18;;;;;;;17.39;100.00;101357.19;5035011;28;20053;-75
2022/08/18 04:10:26;;;;;;;14.13;10.52;;;;;;;17.42;100.00;101362.50;5047014;28;20028;-77
2022/08/18 04:12:52;;;;;;;14.05;10.30;;;;;;;17.43;100.00;101357.19;5035095;28;20033;-76
2022/08/18 04:15:17;;;;;;;13.60;10.10;;;;;;;17.44;100.00;101350.94;5042035;28;20035;-75
2022/08/18 04:17:45;;;;;;;18.30;11.35;;;;;;;17.44;100.00;101361.59;5034948;28;20163;-75
2022/08/18 04:20:11;;;;;;;16.40;11.07;;;;;;;17.44;100.00;101358.06;5034092;28;20024;-76
2022/08/18 04:22:38;;;;;;;19.23;11.80;;;;;;;17.45;100.00;101351.84;5035077;28;20037;-76
2022/08/18 04:25:03;;;;;;;38.92;18.60;;;;;;;17.46;100.00;101351.84;5046957;28;20051;-76
2022/08/18 04:27:29;;;;;;;24.30;14.18;;;;;;;17.47;100.00;101350.97;5074834;28;20146;-77
2022/08/18 04:29:58;;;;;;;20.73;12.35;;;;;;;17.50;100.00;101361.59;5039477;28;20033;-75
2022/08/18 04:32:23;;;;;;;16.75;11.40;;;;;;;17.52;100.00;101357.13;5047102;28;20478;-75
2022/08/18 04:34:48;;;;;;;14.05;10.77;;;;;;;17.54;100.00;101357.16;5034472;28;20083;-77
2022/08/18 04:37:15;;;;;;;15.75;10.50;;;;;;;17.56;100.00;101349.16;5046947;28;20060;-76
2022/08/18 04:39:41;;;;;;;20.05;12.68;;;;;;;17.58;100.00;101345.59;5046560;28;20461;-76
2022/08/18 04:42:07;;;;;;;16.90;11.38;;;;;;;17.63;100.00;101348.22;5054328;28;20100;-76
2022/08/18 04:44:34;;;;;;;15.48;11.38;;;;;;;17.63;100.00;101345.56;5048333;28;20045;-76
2022/08/18 04:47:00;;;;;;;13.95;11.35;;;;;;;17.67;100.00;101357.97;5041780;28;20104;-75
2022/08/18 04:49:26;;;;;;;18.15;11.40;;;;;;;17.61;100.00;101347.38;5039574;28;20029;-78
2022/08/18 04:54:39;;;;;;;16.52;10.88;;;;;;;17.57;100.00;101337.63;5039306;28;20248;-76
2022/08/18 04:57:07;;;;;;;15.60;12.32;;;;;;;17.57;100.00;101334.97;5041048;28;20032;-77
2022/08/18 04:59:33;;;;;;;16.05;11.98;;;;;;;17.57;100.00;101338.50;5043510;28;20033;-76
2022/08/18 05:02:00;;;;;;;17.13;12.20;;;;;;;17.55;100.00;101350.03;5049138;28;20032;-76
2022/08/18 05:04:27;;;;;;;18.25;12.68;;;;;;;17.52;100.00;101343.81;5046544;28;20029;-77
2022/08/18 05:06:52;;;;;;;20.98;11.80;;;;;;;17.53;100.00;101342.94;5038860;28;20073;-75
2022/08/18 05:09:18;;;;;;;18.35;12.07;;;;;;;17.56;100.00;101346.50;5049891;28;20029;-74
2022/08/18 05:11:43;;;;;;;16.45;12.13;;;;;;;17.58;100.00;101353.56;5041102;28;20044;-75
2022/08/18 05:14:09;;;;;;;20.50;12.32;;;;;;;17.58;100.00;101342.03;5034209;28;20021;-74
2022/08/18 05:16:35;;;;;;;16.63;13.18;;;;;;;17.61;100.00;101342.91;5045753;28;20048;-75
2022/08/18 05:19:10;;;;;;;15.07;12.45;;;;;;;17.62;100.00;101343.78;5039193;28;20026;-75
2022/08/18 05:21:36;;;;;;;15.45;12.25;;;;;;;17.63;100.00;101345.56;5034391;28;20029;-76
2022/08/18 05:24:04;;;;;;;17.80;11.85;;;;;;;17.61;100.00;101339.38;5038471;28;20029;-74
2022/08/18 05:26:30;;;;;;;19.98;12.57;;;;;;;17.60;100.00;101345.59;5071433;28;20033;-76
2022/08/18 05:28:56;;;;;;;17.45;12.48;;;;;;;17.60;100.00;101356.22;5054383;28;20083;-76
2022/08/18 05:31:24;;;;;;;17.23;12.32;;;;;;;17.61;100.00;101355.34;5048298;28;20068;-76
2022/08/18 05:33:50;;;;;;;18.65;13.35;;;;;;;17.65;100.00;101363.28;5041882;28;20047;-75
2022/08/18 05:36:15;;;;;;;19.63;12.88;;;;;;;17.67;100.00;101352.63;5033770;28;20469;-75
2022/08/18 05:39:07;;;;;;;17.08;12.32;;;;;;;17.72;100.00;101360.63;5036187;28;20021;-76
2022/08/18 05:41:40;;;;;;;17.20;12.30;;;;;;;17.74;100.00;101362.34;5032847;28;20033;-75
2022/08/18 05:44:08;;;;;;;20.93;14.27;;;;;;;17.77;100.00;101370.34;5033740;28;20103;-74
2022/08/18 05:46:42;;;;;;;18.00;11.82;;;;;;;17.80;100.00;101359.66;5035364;28;20147;-77
2022/08/18 05:49:08;;;;;;;17.25;12.20;;;;;;;17.84;100.00;101361.41;5035882;28;20060;-76
2022/08/18 05:51:40;;;;;;;16.58;13.13;;;;;;;17.90;100.00;101363.16;5048012;28;20030;-77
2022/08/18 05:56:54;;;;;;;14.43;12.05;;;;;;;17.96;100.00;101349.88;5042500;28;20039;-76
2022/08/18 05:59:41;;;;;;;17.40;13.05;;;;;;;18.01;100.00;101352.47;5044695;28;20030;-76
2022/08/18 06:02:35;;;;;;;16.92;13.13;;;;;;;18.08;100.00;101342.69;5048457;28;20109;-75
2022/08/18 06:05:39;;;;;;;16.50;12.93;;;;;;;18.13;100.00;101341.75;5039004;28;20033;-76
2022/08/18 06:08:09;;;;;;;19.73;12.93;;;;;;;18.20;100.00;101346.16;4996924;28;20061;-76
2022/08/18 06:10:36;;;;;;;19.23;13.57;;;;;;;18.26;100.00;101347.88;5012266;28;20136;-75
2022/08/18 06:13:06;;;;;;;15.35;11.93;;;;;;;18.31;100.00;101345.19;5024839;28;20045;-74
2022/08/18 06:15:34;;;;;;;15.02;11.35;;;;;;;18.39;100.00;101353.13;5047132;28;20033;-77
2022/08/18 06:18:05;;;;;;;20.52;11.13;;;;;;;18.44;100.00;101349.53;5055086;28;20052;-77
2022/08/18 06:21:04;;;;;;;16.25;11.10;;;;;;;18.51;100.00;101351.22;5038294;28;20052;-76
2022/08/18 06:24:06;;;;;;;18.58;12.75;;;;;;;18.61;100.00;101349.41;5037104;28;20044;-74
2022/08/18 06:26:55;;;;;;;15.32;10.65;;;;;;;18.69;100.00;101351.97;5036251;28;20072;-76
2022/08/18 06:29:43;;;;;;;13.63;9.45;;;;;;;18.75;100.00;101349.25;5049629;28;20055;-77
2022/08/18 06:32:59;;;;;;;14.88;8.27;;;;;;;18.84;100.00;101356.28;5050672;28;20036;-75
2022/08/18 06:35:36;;;;;;;12.88;8.05;;;;;;;18.91;100.00;101349.13;5017199;28;20088;-75
2022/08/18 06:41:14;;;;;;;11.35;6.97;;;;;;;19.00;100.00;101351.72;5039334;28;20040;-77
2022/08/18 06:43:57;;;;;;;9.90;7.30;;;;;;;19.07;100.00;101364.06;5049358;28;20021;-73
2022/08/18 06:46:33;;;;;;;11.70;7.55;;;;;;;19.12;100.00;101372.06;5040903;28;20029;-77
2022/08/18 06:49:05;;;;;;;8.20;6.53;;;;;;;19.18;100.00;101364.88;5045946;28;20079;-77
2022/08/18 06:51:31;;;;;;;8.40;6.95;;;;;;;19.25;100.00;101372.78;5041288;28;20474;-77
2022/08/18 06:54:06;;;;;;;9.00;6.10;;;;;;;19.31;100.00;101367.41;5044108;28;20118;-77
2022/08/18 06:56:37;;;;;;;7.70;6.03;;;;;;;19.36;100.00;101371.78;5040765;28;20033;-77
2022/08/18 06:59:20;;;;;;;10.55;6.10;;;;;;;19.44;100.00;101378.78;5043269;28;20025;-76
2022/08/18 07:01:49;;;;;;;9.95;5.78;;;;;;;19.43;100.00;101380.59;5042412;28;20021;-75
2022/08/18 07:04:36;;;;;;;12.48;6.57;;;;;;;19.47;100.00;101378.78;5044649;28;20031;-76
2022/08/18 07:07:38;;;;;;;8.88;6.07;;;;;;;19.50;100.00;101398.28;5052912;28;20464;-77
2022/08/18 07:10:06;;;;;;;7.07;4.75;;;;;;;19.50;100.00;101395.63;5042576;28;20025;-77
2022/08/18 07:12:32;;;;;;;10.15;4.50;;;;;;;19.50;100.00;101395.63;5042813;28;20060;-75
2022/08/18 07:15:02;;;;;;;7.80;4.30;;;;;;;19.53;100.00;101400.94;5042528;28;20036;-76
2022/08/18 07:17:34;;;;;;;4.07;3.45;;;;;;;19.57;100.00;101400.91;5047721;28;20086;-76
2022/08/18 07:20:23;;;;;;;7.35;4.22;;;;;;;19.67;100.00;101399.91;5050163;28;20036;-77
2022/08/18 07:23:01;;;;;;;6.47;4.35;;;;;;;19.73;100.00;101399.81;5048188;28;20040;-75
2022/08/18 07:25:49;;;;;;;9.55;4.28;;;;;;;19.78;100.00;101402.41;5044879;28;20031;-76
2022/08/18 07:28:32;;;;;;;6.57;4.10;;;;;;;19.82;100.00;101396.19;5046988;28;20037;-76
2022/08/18 07:31:34;;;;;;;5.23;4.10;;;;;;;19.85;100.00;101393.47;5035293;28;20061;-77
2022/08/18 07:34:07;;;;;;;7.88;3.28;;;;;;;19.88;100.00;101393.41;5034558;28;20541;-76
2022/08/18 07:36:42;;;;;;;7.33;3.60;;;;;;;19.91;100.00;101392.50;5037077;28;20029;-76
2022/08/18 07:39:19;;;;;;;5.47;2.92;;;;;;;19.93;100.00;101396.03;5042072;28;20039;-74
2022/08/18 07:41:56;;;;;;;8.98;3.47;;;;;;;19.95;100.00;101399.56;5033896;28;20033;-75
2022/08/18 07:44:33;;;;;;;3.53;2.38;;;;;;;19.97;100.00;101406.66;5040433;28;20081;-77
2022/08/18 07:47:05;;;;;;;2.95;2.58;;;;;;;20.01;100.00;101400.38;5043376;28;20036;-77
2022/08/18 07:49:34;;;;;;;4.85;2.60;;;;;;;20.07;100.00;101414.56;5045237;28;20036;-76
2022/08/18 07:52:05;;;;;;;2.92;2.63;;;;;;;20.13;100.00;101411.78;5047696;28;20033;-76
2022/08/18 07:54:41;;;;;;;5.25;2.50;;;;;;;20.25;100.00;101416.06;5038838;28;20108;-75
2022/08/18 07:57:22;;;;;;;5.57;3.00;;;;;;;20.39;100.00;101419.44;5039857;28;20021;-77
2022/08/18 08:00:02;;;;;;;5.90;2.22;;;;;;;20.56;100.00;101421.81;5053365;28;20028;-76
2022/08/18 08:02:47;;;;;;;3.15;2.28;;;;;;;20.78;100.00;101414.41;5062960;28;20171;-77
2022/08/18 08:05:28;;;;;;;5.43;2.60;;;;;;;21.02;100.00;101428.25;5053167;28;20412;-75
2022/08/18 08:08:24;;;;;;;5.57;2.03;;;;;;;21.28;100.00;101427.75;5052656;28;20041;-76
2022/08/18 08:11:07;;;;;;;4.93;2.00;;;;;;;21.44;100.00;101427.47;5054192;28;20044;-74
2022/08/18 08:13:36;;;;;;;7.32;2.00;;;;;;;21.62;100.00;101426.25;5035523;28;20523;-77
2022/08/18 08:16:34;;;;;;;3.88;2.15;;;;;;;21.83;100.00;101424.94;5035179;28;20030;-77
2022/08/18 08:19:14;;;;;;;4.72;2.35;;;;;;;21.87;100.00;101427.50;5054408;28;20031;-76
2022/08/18 08:21:47;;;;;;;3.65;2.08;;;;;;;21.98;100.00;101423.72;5058192;28;20104;-77
2022/08/18 08:24:39;;;;;;;5.45;1.95;;;;;;;22.02;100.00;101423.63;5046490;28;20029;-75
2022/08/18 08:27:15;;;;;;;2.50;1.67;;;;;;;21.92;100.00;101430.13;5035609;28;20112;-75
2022/08/18 08:30:05;;;;;;;2.67;1.80;;;;;;;22.01;100.00;101418.31;5042890;28;20029;-75
2022/08/18 08:32:34;;;;;;;2.03;1.55;;;;;;;22.05;100.00;101410.16;5047019;28;20029;-76
2022/08/18 08:35:06;;;;;;;2.05;1.70;;;;;;;22.08;100.00;101413.69;5053790;28;20029;-77
2022/08/18 08:37:32;;;;;;;3.17;1.88;;;;;;;22.18;100.00;101416.13;5053711;28;20029;-75
2022/08/18 08:40:07;;;;;;;1.95;1.60;;;;;;;22.30;100.00;101420.34;5037784;28;20040;-75
2022/08/18 08:42:38;;;;;;;2.47;1.77;;;;;;;22.42;100.00;101415.63;5048072;28;20051;-75
2022/08/18 08:45:35;;;;;;;2.85;1.10;;;;;;;22.53;100.00;101414.44;5038488;28;20049;-76
2022/08/18 08:48:19;;;;;;;1.40;1.00;;;;;;;22.62;100.00;101415.16;5034290;28;20488;-76
2022/08/18 08:51:09;;;;;;;2.88;1.13;;;;;;;22.71;100.00;101414.91;5035588;28;20026;-76
2022/08/18 08:53:44;;;;;;;2.67;0.90;;;;;;;22.79;100.00;101418.28;5034392;28;20028;-75
2022/08/18 08:56:14;;;;;;;1.13;1.02;;;;;;;22.73;100.00;101423.81;5038953;28;20448;-75
2022/08/18 08:58:51;;;;;;;4.20;1.23;;;;;;;22.69;100.00;101414.06;5053818;28;20035;-74
2022/08/18 09:01:48;;;;;;;1.40;1.30;;;;;;;22.68;100.00;101415.88;5058899;28;20017;-75
2022/08/18 09:04:28;;;;;;;2.47;1.30;;;;;;;22.63;100.00;101412.41;5052261;28;20099;-75
2022/08/18 09:07:04;;;;;;;3.58;1.35;;;;;;;22.59;100.00;101415.22;5058535;28;20052;-76
2022/08/18 09:09:43;;;;;;;1.63;1.35;;;;;;;22.49;100.00;101412.78;5037788;28;20025;-76
2022/08/18 09:12:45;;;;;;;2.33;1.40;;;;;;;22.38;100.00;101415.69;5040775;28;20026;-77
2022/08/18 09:15:32;;;;;;;1.92;1.38;;;;;;;22.36;100.00;101413.97;5047416;28;20389;-76
2022/08/18 09:18:29;;;;;;;7.55;2.30;;;;;;;22.31;100.00;101418.53;5049014;28;20033;-77
2022/08/18 09:21:05;;;;;;;6.03;1.42;;;;;;;22.27;100.00;101420.38;5042401;28;20020;-77
2022/08/18 09:23:43;;;;;;;5.30;1.30;;;;;;;22.23;100.00;101418.69;5043002;28;20435;-77
2022/08/18 09:26:48;;;;;;;3.47;1.40;;;;;;;22.15;100.00;101421.56;5050441;28;20032;-76
2022/08/18 09:29:22;;;;;;;3.58;1.40;;;;;;;22.15;100.00;101415.31;5040476;28;20030;-76
2022/08/18 09:31:48;;;;;;;1.88;1.40;;;;;;;22.04;100.00;101412.88;5046833;28;20104;-77
2022/08/18 09:34:30;;;;;;;2.10;1.30;;;;;;;22.02;100.00;101414.72;5060800;28;20037;-78
2022/08/18 09:37:27;;;;;;;3.05;1.75;;;;;;;22.05;100.00;101414.63;5058827;28;20071;-76
2022/08/18 09:43:16;;;;;;;3.95;2.03;;;;;;;22.34;100.00;101421.13;5045268;28;20083;-72
2022/08/18 09:45:55;;;;;;;3.10;1.85;;;;;;;22.61;100.00;101418.75;5040910;28;20114;-76
2022/08/18 09:48:25;;;;;;;4.07;1.67;;;;;;;22.73;100.00;101426.47;5051854;28;20025;-77
2022/08/18 09:50:53;;;;;;;5.07;2.03;;;;;;;22.77;100.00;101425.47;5043575;28;20044;-76
2022/08/18 09:53:51;;;;;;;5.35;1.58;;;;;;;22.77;100.00;101419.25;5043814;28;20127;-77
2022/08/18 09:56:48;;;;;;;4.25;1.80;;;;;;;22.76;100.00;101418.34;5041388;28;20039;-75
2022/08/18 09:59:32;;;;;;;5.85;1.90;;;;;;;22.72;100.00;101422.03;5049794;28;20086;-78
2022/08/18 10:02:00;;;;;;;;;;;;;;;22.76;100.00;101425.53;5056076;28;20026;-79
2022/08/18 10:04:26;;;;;;;7.47;2.40;;;;;;;22.73;100.00;101418.44;5046320;28;19913;-81
2022/08/18 10:06:52;;;;;;;4.15;1.70;;;;;;;22.76;100.00;101415.66;5048725;28;20056;-78
2022/08/18 10:09:20;;;;;;;6.55;1.95;;;;;;;22.75;100.00;101416.59;5060872;28;20025;-77
2022/08/18 10:11:55;;;;;;;5.60;1.75;;;;;;;22.77;100.00;101412.06;5059590;28;20233;-76
2022/08/18 10:14:39;;;;;;;8.00;2.10;;;;;;;22.82;100.00;101407.47;5049335;28;20035;-78
2022/08/18 10:17:19;;;;;;;6.47;1.90;;;;;;;22.83;100.00;101409.25;5049455;28;20077;-79
2022/08/18 10:20:12;;;;;;;6.15;2.70;;;;;;;22.83;100.00;101409.25;5049251;28;20028;-78
2022/08/18 10:22:42;;;;;;;3.78;1.98;;;;;;;22.90;100.00;101410.84;5049668;28;20028;-77
2022/08/18 10:25:10;;;;;;;4.60;2.30;;;;;;;22.95;100.00;101413.38;5054651;28;20028;-77
2022/08/18 10:27:47;;;;;;;5.65;1.98;;;;;;;22.99;100.00;101409.72;5053776;28;20037;-78
2022/08/18 10:30:34;;;;;;;10.20;2.42;;;;;;;23.01;100.00;101417.75;5060108;28;20059;-77
2022/08/18 10:33:06;;;;;;;8.13;2.20;;;;;;;23.07;100.00;101418.47;5060998;28;20036;-78
2022/08/18 10:35:34;;;;;;;9.43;2.22;;;;;;;23.20;100.00;101420.84;5058530;28;20028;-79
2022/08/18 10:38:01;;;;;;;7.32;1.65;;;;;;;23.32;100.00;101411.56;5056408;28;20028;-77
2022/08/18 10:40:27;;;;;;;4.50;2.22;;;;;;;23.46;100.00;101414.75;5069482;28;20424;-77
2022/08/18 10:43:07;;;;;;;5.93;1.83;;;;;;;23.63;100.00;101411.59;5047369;28;20048;-78
2022/08/18 10:45:44;;;;;;;7.40;1.73;;;;;;;23.79;100.00;101403.06;5062914;28;20033;-73
2022/08/18 10:48:23;;;;;;;5.07;1.90;;;;;;;23.95;100.00;101396.31;5052245;28;20025;-74
2022/08/18 10:51:12;;;;;;;4.47;1.55;;;;;;;24.26;100.00;101400.75;5053833;28;20128;-75
2022/08/18 10:53:46;;;;;;;4.82;1.83;;;;;;;24.57;100.00;101406.00;5048001;28;20032;-75
2022/08/18 10:56:34;;;;;;;7.47;2.00;;;;;;;24.79;100.00;101402.63;5045713;28;20480;-75
2022/08/18 10:59:31;;;;;;;5.97;2.00;;;;;;;25.00;100.00;101409.09;5047255;28;20031;-76
2022/08/18 11:02:51;;;;;;;5.25;1.90;;;;;;;25.11;100.00;101411.41;5042137;28;20040;-75
2022/08/18 11:05:21;;;;;;;2.58;1.58;;;;;;;25.35;100.00;101415.09;5023692;28;20029;-75
2022/08/18 11:07:48;;;;;;;6.50;2.00;;;;;;;25.61;100.00;101415.03;5053197;28;20049;-77
2022/08/18 11:10:23;;;;;;;7.63;2.33;;;;;;;25.75;100.00;101418.97;5045473;28;20048;-74
2022/08/18 11:13:13;;;;;;;4.35;1.77;;;;;;;25.94;100.00;101396.72;5046688;28;20117;-76
2022/08/18 11:16:05;;;;;;;5.47;1.77;;;;;;;26.33;100.00;101400.59;5044539;28;20507;-76
2022/08/18 11:18:38;;;;;;;5.95;1.88;;;;;;;26.75;100.00;101389.88;5045300;28;20022;-74
2022/08/18 11:21:25;;;;;;;5.80;1.90;;;;;;;27.17;100.00;101401.56;5053134;28;20032;-75
2022/08/18 11:24:03;;;;;;;3.95;1.80;;;;;;;27.19;100.00;101398.81;5060810;28;20502;-73
2022/08/18 11:26:30;;;;;;;5.60;1.60;;;;;;;27.48;93.72;101388.53;5043601;28;20385;-75
2022/08/18 11:28:56;;;;;;;4.22;1.50;;;;;;;27.61;90.65;101402.38;5059054;28;20037;-74
2022/08/18 11:31:22;;;;;;;3.15;1.52;;;;;;;27.95;90.51;101406.19;5050878;28;20031;-74
2022/08/18 11:33:47;;;;;;;2.17;1.35;;;;;;;27.79;84.52;101396.06;5046421;28;20025;-74
2022/08/18 11:36:15;;;;;;;2.38;1.80;;;;;;;27.52;93.50;101401.81;5045683;28;20478;-74
2022/08/18 11:38:53;;;;;;;3.72;1.63;;;;;;;27.17;100.00;101396.16;5061140;28;20033;-73
2022/08/18 11:41:25;;;;;;;3.00;1.88;;;;;;;26.85;95.72;101389.47;5063796;28;20487;-74
2022/08/18 11:43:58;;;;;;;5.27;2.13;;;;;;;26.50;94.90;101397.22;5061773;28;20499;-74
2022/08/18 11:46:28;;;;;;;;;;;;;;;26.21;99.21;101389.38;5040304;28;20295;-74
2022/08/18 11:48:53;;;;;;;4.60;1.80;;;;;;;26.05;100.00;101382.84;5049650;28;19916;-74
2022/08/18 11:51:24;;;;;;;3.75;1.65;;;;;;;25.91;98.08;101376.13;5053151;28;20029;-74
2022/08/18 11:54:01;;;;;;;6.35;2.40;;;;;;;25.98;96.80;101375.88;5054413;28;20024;-73